Time;durP1;ratioP1;P1;durP2;ratioP2;P2;SDS_P1;SDS_P2;PMS_P1;PMS_P2;Temp;Humidity;BMP_temperature;BMP_pressure;BME280_temperature;BME280_humidity;BME280_pressure;Samples;Min_cycle;Max_cycle;Signal;HPM_P1;HPM_P2
2023/10/15 00:01:57;;;;;;;4.40;0.98;;;7.00;99.90;;;;;;5045602;28;20080;-81
2023/10/15 00:04:24;;;;;;;10.48;2.33;;;6.90;99.90;;;;;;5052821;28;20501;-81
2023/10/15 00:06:51;;;;;;;6.28;1.10;;;6.90;99.90;;;;;;5052513;28;20697;-80
2023/10/15 00:09:17;;;;;;;4.72;0.90;;;6.90;99.90;;;;;;5069266;28;20037;-80
2023/10/15 00:11:44;;;;;;;4.65;1.20;;;6.90;99.90;;;;;;5052383;28;20040;-80
2023/10/15 00:14:11;;;;;;;4.47;1.05;;;6.90;99.90;;;;;;5069090;28;20059;-81
2023/10/15 00:16:38;;;;;;;5.78;1.23;;;6.90;99.90;;;;;;5068945;28;20379;-81
2023/10/15 00:19:10;;;;;;;7.45;1.20;;;6.90;99.90;;;;;;5068917;28;20095;-80
2023/10/15 00:21:40;;;;;;;8.63;1.55;;;7.00;99.90;;;;;;5052580;28;20110;-80
2023/10/15 00:24:10;;;;;;;5.78;1.42;;;7.00;99.90;;;;;;5046538;28;20034;-81
2023/10/15 00:26:38;;;;;;;7.90;1.10;;;7.00;99.90;;;;;;5045651;28;20036;-81
2023/10/15 00:29:07;;;;;;;4.95;1.00;;;7.00;99.90;;;;;;5052084;28;20487;-81
2023/10/15 00:31:35;;;;;;;5.32;1.20;;;7.10;99.90;;;;;;5052040;28;20120;-81
2023/10/15 00:34:01;;;;;;;5.35;1.10;;;7.00;99.90;;;;;;5060801;28;20179;-82
2023/10/15 00:36:28;;;;;;;6.22;1.00;;;7.00;99.90;;;;;;5047371;28;20040;-81
2023/10/15 00:38:54;;;;;;;7.10;0.85;;;6.90;99.90;;;;;;5068829;28;20122;-81
2023/10/15 00:41:21;;;;;;;9.23;1.15;;;6.90;99.90;;;;;;5049930;28;20051;-81
2023/10/15 00:43:54;;;;;;;4.15;0.95;;;6.90;99.90;;;;;;5057434;28;20037;-81
2023/10/15 00:46:24;;;;;;;5.07;1.23;;;6.80;99.90;;;;;;5068761;28;20132;-81
2023/10/15 00:48:56;;;;;;;5.57;0.98;;;6.80;99.90;;;;;;5069110;28;20102;-82
2023/10/15 00:51:23;;;;;;;4.88;1.10;;;6.70;99.90;;;;;;5052039;28;20045;-82
2023/10/15 00:53:54;;;;;;;3.15;0.80;;;6.80;99.90;;;;;;5040276;28;20060;-81
2023/10/15 00:56:35;;;;;;;7.93;1.35;;;6.70;99.90;;;;;;5034909;28;20152;-81
2023/10/15 00:59:43;;;;;;;7.13;1.00;;;6.70;99.90;;;;;;5061848;28;20127;-81
2023/10/15 01:04:31;;;;;;;6.10;1.10;;;7.10;99.90;;;;;;5049023;28;20049;-81
2023/10/15 01:07:13;;;;;;;2.92;0.90;;;6.50;99.90;;;;;;5061791;28;20112;-81
2023/10/15 01:09:40;;;;;;;4.25;0.90;;;6.70;99.90;;;;;;5063562;28;20041;-81
2023/10/15 01:12:30;;;;;;;3.65;1.02;;;6.50;99.90;;;;;;5044034;28;20392;-81
2023/10/15 01:14:58;;;;;;;8.07;1.23;;;6.60;99.90;;;;;;5041421;28;20039;-81
2023/10/15 01:17:26;;;;;;;8.13;1.50;;;7.10;99.90;;;;;;5067853;28;20049;-81
2023/10/15 01:19:53;;;;;;;5.80;1.10;;;6.60;99.90;;;;;;5069360;28;20863;-81
2023/10/15 01:22:23;;;;;;;6.75;1.10;;;6.70;99.90;;;;;;5070626;28;20036;-81
2023/10/15 01:24:53;;;;;;;3.10;0.82;;;6.70;99.90;;;;;;5055459;28;20116;-81
2023/10/15 01:27:28;;;;;;;4.35;1.05;;;6.70;99.90;;;;;;5072285;28;20067;-80
2023/10/15 01:29:55;;;;;;;5.78;1.25;;;6.70;99.90;;;;;;5058764;28;20518;-81
2023/10/15 01:32:22;;;;;;;5.25;1.13;;;6.80;99.90;;;;;;5055500;28;20048;-82
2023/10/15 01:34:49;;;;;;;4.95;1.10;;;6.80;99.90;;;;;;5055546;28;20469;-82
2023/10/15 01:39:49;;;;;;;3.25;1.00;;;6.80;99.90;;;;;;5064975;28;20056;-81
2023/10/15 01:47:36;;;;;;;7.28;1.40;;;6.80;99.90;;;;;;5052347;28;20107;-81
2023/10/15 01:50:08;;;;;;;6.45;2.05;;;6.80;99.90;;;;;;5062829;28;20116;-82
2023/10/15 01:52:44;;;;;;;3.67;0.98;;;6.90;99.90;;;;;;5064657;28;20098;-81
2023/10/15 01:55:13;;;;;;;7.38;1.10;;;6.80;99.90;;;;;;5061812;28;20529;-81
2023/10/15 01:57:39;;;;;;;3.28;0.90;;;6.90;99.90;;;;;;5068252;28;20491;-81
2023/10/15 02:02:53;;;;;;;;;;;6.90;99.90;;;;;;5072317;28;20073;-82
2023/10/15 02:05:29;;;;;;;8.70;1.00;;;7.00;99.90;;;;;;5041795;28;20007;-81
2023/10/15 02:07:56;;;;;;;3.55;1.20;;;7.00;99.90;;;;;;5070788;28;20037;-81
2023/10/15 02:10:23;;;;;;;6.47;1.00;;;7.00;99.90;;;;;;5054920;28;20048;-82
2023/10/15 02:13:00;;;;;;;6.43;1.02;;;7.20;99.90;;;;;;5069390;28;20071;-82
2023/10/15 02:15:32;;;;;;;6.40;1.05;;;7.00;99.90;;;;;;5041603;28;20025;-81
2023/10/15 02:17:59;;;;;;;4.07;0.85;;;6.90;99.90;;;;;;5046735;28;20037;-81
2023/10/15 02:20:42;;;;;;;5.35;0.88;;;6.90;99.90;;;;;;5062305;28;20044;-82
2023/10/15 02:23:09;;;;;;;6.88;1.02;;;6.90;99.90;;;;;;5070900;28;20036;-81
2023/10/15 02:25:41;;;;;;;6.20;1.20;;;6.90;99.90;;;;;;5051143;28;20098;-81
2023/10/15 02:28:09;;;;;;;7.43;1.00;;;6.90;99.90;;;;;;5034668;28;20472;-81
2023/10/15 02:30:40;;;;;;;5.93;1.00;;;6.90;99.90;;;;;;5051189;28;20045;-81
2023/10/15 02:33:07;;;;;;;4.47;0.90;;;6.90;99.90;;;;;;5060996;28;20044;-80
2023/10/15 02:35:39;;;;;;;6.57;1.20;;;6.80;99.90;;;;;;5063705;28;20037;-82
2023/10/15 02:38:10;;;;;;;6.32;0.85;;;6.90;99.90;;;;;;5065099;28;20044;-82
2023/10/15 02:40:57;;;;;;;3.83;0.90;;;6.80;99.90;;;;;;5054038;28;20049;-81
2023/10/15 02:43:27;;;;;;;3.75;0.95;;;6.70;99.90;;;;;;5057731;28;20045;-81
2023/10/15 02:45:53;;;;;;;3.22;0.98;;;6.70;99.90;;;;;;5063210;28;20556;-81
2023/10/15 02:48:20;;;;;;;4.30;0.80;;;6.70;99.90;;;;;;5070233;28;20131;-81
2023/10/15 02:51:08;;;;;;;2.88;0.90;;;6.70;99.90;;;;;;5070398;28;20044;-81
2023/10/15 02:53:50;;;;;;;3.03;1.00;;;6.70;99.90;;;;;;5047780;28;20045;-81
2023/10/15 02:56:17;;;;;;;6.38;1.02;;;6.70;99.90;;;;;;5049890;28;20042;-81
2023/10/15 02:58:45;;;;;;;7.57;1.15;;;6.70;99.90;;;;;;5063190;28;20655;-81
2023/10/15 03:01:23;;;;;;;6.20;0.93;;;6.80;99.90;;;;;;5053793;28;20053;-81
2023/10/15 03:03:52;;;;;;;6.15;0.88;;;6.70;99.90;;;;;;5041120;28;20032;-81
2023/10/15 03:06:31;;;;;;;7.22;1.10;;;6.80;99.90;;;;;;5053627;28;20037;-81
2023/10/15 03:08:59;;;;;;;4.45;0.95;;;6.90;99.90;;;;;;5054130;28;20048;-81
2023/10/15 03:11:31;;;;;;;5.00;0.98;;;6.80;99.90;;;;;;5057072;28;20045;-81
2023/10/15 03:14:00;;;;;;;9.27;1.25;;;6.90;99.90;;;;;;5053672;28;20041;-80
2023/10/15 03:16:35;;;;;;;3.25;0.88;;;6.90;99.90;;;;;;5066018;28;20037;-81
2023/10/15 03:19:19;;;;;;;4.25;0.90;;;6.90;99.90;;;;;;5051352;28;20037;-81
2023/10/15 03:21:46;;;;;;;2.53;0.77;;;6.90;99.90;;;;;;5057392;28;20029;-82
2023/10/15 03:24:17;;;;;;;6.43;1.00;;;7.00;99.90;;;;;;5036142;28;20041;-81
2023/10/15 03:26:50;;;;;;;4.05;0.88;;;7.00;99.90;;;;;;5040876;28;20048;-81
2023/10/15 03:29:16;;;;;;;3.83;0.93;;;7.00;99.90;;;;;;5047858;28;20124;-81
2023/10/15 03:31:46;;;;;;;4.68;1.10;;;7.10;99.90;;;;;;5053370;28;20131;-82
2023/10/15 03:34:22;;;;;;;3.40;1.13;;;7.00;99.90;;;;;;5036340;28;20045;-81
2023/10/15 03:37:00;;;;;;;9.15;1.00;;;7.20;99.90;;;;;;5039611;28;20049;-81
2023/10/15 03:39:53;;;;;;;7.05;1.08;;;7.00;99.90;;;;;;5060910;28;20041;-81
2023/10/15 03:44:44;;;;;;;4.60;0.93;;;7.00;99.90;;;;;;5063227;28;20055;-81
2023/10/15 03:47:12;;;;;;;7.00;1.20;;;7.00;99.90;;;;;;5053253;28;20040;-81
2023/10/15 03:49:39;;;;;;;5.63;1.13;;;7.00;99.90;;;;;;5069188;28;20044;-81
2023/10/15 03:52:14;;;;;;;12.05;1.10;;;7.20;99.90;;;;;;5051029;28;20592;-81
2023/10/15 03:54:47;;;;;;;4.68;0.90;;;6.90;99.90;;;;;;5062369;28;20098;-81
2023/10/15 03:57:22;;;;;;;3.97;0.93;;;6.90;99.90;;;;;;5041028;28;20046;-81
2023/10/15 03:59:55;;;;;;;3.50;1.50;;;6.90;99.90;;;;;;5049073;28;20045;-81
2023/10/15 04:02:26;;;;;;;5.47;1.10;;;6.90;99.90;;;;;;5051482;28;20041;-81
2023/10/15 04:05:12;;;;;;;5.13;1.05;;;6.90;99.90;;;;;;5051140;28;20049;-81
2023/10/15 04:07:48;;;;;;;3.50;0.85;;;6.80;99.90;;;;;;5069289;28;20036;-81
2023/10/15 04:10:23;;;;;;;6.85;1.30;;;6.90;99.90;;;;;;5052378;28;20048;-81
2023/10/15 04:12:50;;;;;;;3.60;0.82;;;6.90;99.90;;;;;;5069259;28;20136;-81
2023/10/15 04:15:17;;;;;;;3.50;0.80;;;7.00;99.90;;;;;;5060401;28;20460;-81
2023/10/15 04:17:45;;;;;;;3.30;0.85;;;6.90;99.90;;;;;;5063401;28;20384;-82
2023/10/15 04:20:15;;;;;;;3.95;0.80;;;6.90;99.90;;;;;;5056022;28;20048;-81
2023/10/15 04:22:46;;;;;;;5.68;0.77;;;6.90;99.90;;;;;;5039884;28;20033;-81
2023/10/15 04:25:23;;;;;;;3.45;0.80;;;6.90;99.90;;;;;;5042083;28;20037;-81
2023/10/15 04:27:50;;;;;;;6.30;0.82;;;6.90;99.90;;;;;;5069323;28;20044;-81
2023/10/15 04:30:19;;;;;;;4.47;0.80;;;6.90;99.90;;;;;;5065324;28;20049;-82
2023/10/15 04:32:47;;;;;;;6.65;0.90;;;6.90;99.90;;;;;;5043191;28;20052;-81
2023/10/15 04:35:18;;;;;;;4.85;1.00;;;6.90;99.90;;;;;;5039113;28;20047;-81
2023/10/15 04:37:48;;;;;;;7.18;0.85;;;6.90;99.90;;;;;;5068681;28;20403;-81
2023/10/15 04:40:22;;;;;;;2.03;0.65;;;7.10;99.90;;;;;;5068592;28;20045;-81
2023/10/15 04:42:52;;;;;;;3.17;0.85;;;6.90;99.90;;;;;;5052274;28;20044;-81
2023/10/15 04:48:12;;;;;;;4.18;0.75;;;6.80;99.90;;;;;;5067403;28;20040;-81
2023/10/15 04:50:40;;;;;;;4.22;0.90;;;6.80;99.90;;;;;;5056374;28;20040;-81
2023/10/15 04:53:14;;;;;;;3.47;0.85;;;6.70;99.90;;;;;;5053779;28;20502;-81
2023/10/15 04:55:42;;;;;;;2.25;0.80;;;6.70;99.90;;;;;;5050464;28;20044;-81
2023/10/15 04:58:13;;;;;;;2.42;0.80;;;6.70;99.90;;;;;;5072209;28;20040;-80
2023/10/15 05:00:40;;;;;;;2.15;0.52;;;6.60;99.90;;;;;;5070728;28;20052;-80
2023/10/15 05:03:07;;;;;;;3.45;0.70;;;6.60;99.90;;;;;;5065641;28;20041;-81
2023/10/15 05:05:34;;;;;;;2.25;0.63;;;6.60;99.90;;;;;;5036526;28;20059;-81
2023/10/15 05:08:00;;;;;;;1.55;0.50;;;6.50;99.90;;;;;;5050855;28;20094;-81
2023/10/15 05:10:33;;;;;;;1.98;0.65;;;6.50;99.90;;;;;;5047789;28;20116;-81
2023/10/15 05:12:59;;;;;;;3.50;0.55;;;6.50;99.90;;;;;;5051915;28;20041;-80
2023/10/15 05:15:26;;;;;;;1.75;0.60;;;6.50;99.90;;;;;;5072045;28;20491;-81
2023/10/15 05:17:53;;;;;;;3.70;0.70;;;6.50;99.90;;;;;;5048371;28;20483;-81
2023/10/15 05:20:22;;;;;;;3.25;0.52;;;6.80;99.90;;;;;;5049780;28;20041;-79
2023/10/15 05:22:49;;;;;;;1.48;0.30;;;6.50;99.90;;;;;;5064508;28;20040;-79
2023/10/15 05:25:19;;;;;;;2.63;0.63;;;6.50;99.90;;;;;;5070337;28;20037;-79
2023/10/15 05:27:52;;;;;;;1.73;0.60;;;6.50;99.90;;;;;;5061344;28;20110;-78
2023/10/15 05:30:19;;;;;;;3.70;0.70;;;6.40;99.90;;;;;;5070968;28;20118;-79
2023/10/15 05:32:48;;;;;;;2.90;0.50;;;6.40;99.90;;;;;;5052461;28;20064;-79
2023/10/15 05:35:17;;;;;;;2.95;0.40;;;6.40;99.90;;;;;;5053271;28;20056;-79
2023/10/15 05:37:45;;;;;;;1.95;0.50;;;6.40;99.90;;;;;;5055150;28;20859;-79
2023/10/15 05:40:15;;;;;;;6.60;0.75;;;6.30;99.90;;;;;;5049326;28;20569;-79
2023/10/15 05:42:42;;;;;;;0.70;0.25;;;6.30;99.90;;;;;;5065010;28;20063;-78
2023/10/15 05:45:09;;;;;;;2.03;0.55;;;6.80;99.90;;;;;;5048447;28;20029;-79
2023/10/15 05:47:37;;;;;;;2.90;0.50;;;6.40;99.90;;;;;;5052484;28;20052;-79
2023/10/15 05:50:04;;;;;;;3.00;0.57;;;6.40;99.90;;;;;;5055114;28;20041;-79
2023/10/15 05:52:31;;;;;;;2.00;0.50;;;6.40;99.90;;;;;;5070595;28;20087;-79
2023/10/15 05:55:00;;;;;;;5.85;0.52;;;6.50;99.90;;;;;;5046800;28;20503;-80
2023/10/15 05:57:28;;;;;;;2.40;0.60;;;6.40;99.90;;;;;;5053434;28;20384;-79
2023/10/15 05:59:54;;;;;;;3.42;0.55;;;6.50;99.90;;;;;;5070183;28;20129;-79
2023/10/15 06:02:21;;;;;;;2.08;0.47;;;7.10;99.90;;;;;;5050959;28;20530;-79
2023/10/15 06:04:48;;;;;;;6.03;0.73;;;6.50;99.90;;;;;;5051567;28;20087;-79
2023/10/15 06:07:15;;;;;;;4.78;0.68;;;6.50;99.90;;;;;;5051459;28;20616;-79
2023/10/15 06:09:45;;;;;;;5.18;0.73;;;6.50;99.90;;;;;;5049813;28;20077;-79
2023/10/15 06:12:13;;;;;;;1.95;0.60;;;6.60;99.90;;;;;;5067867;28;20503;-79
2023/10/15 06:14:39;;;;;;;1.80;0.60;;;6.50;99.90;;;;;;5066992;28;20081;-79
2023/10/15 06:17:06;;;;;;;3.53;0.70;;;6.50;99.90;;;;;;5054329;28;20072;-79
2023/10/15 06:19:34;;;;;;;2.53;0.63;;;6.50;99.90;;;;;;5051084;28;20395;-79
2023/10/15 06:22:00;;;;;;;2.85;0.70;;;6.50;99.90;;;;;;5039738;28;20042;-79
2023/10/15 06:24:27;;;;;;;2.33;0.65;;;6.50;99.90;;;;;;5062378;28;20056;-80
2023/10/15 06:26:54;;;;;;;5.13;0.70;;;6.60;99.90;;;;;;5050091;28;20045;-79
2023/10/15 06:29:20;;;;;;;2.80;0.60;;;6.50;99.90;;;;;;5031139;28;20037;-79
2023/10/15 06:31:47;;;;;;;2.08;0.85;;;6.50;99.90;;;;;;5057113;28;20044;-79
2023/10/15 06:34:15;;;;;;;3.05;0.60;;;6.50;99.90;;;;;;5050692;28;20094;-81
2023/10/15 06:36:47;;;;;;;3.42;0.73;;;6.50;99.90;;;;;;5056450;28;20088;-84
2023/10/15 06:39:14;;;;;;;3.58;0.60;;;6.50;99.90;;;;;;5065968;28;20048;-82
2023/10/15 06:41:41;;;;;;;3.63;0.73;;;6.60;99.90;;;;;;5051376;28;20033;-81
2023/10/15 06:44:08;;;;;;;3.00;0.70;;;6.50;99.90;;;;;;5049380;28;20045;-82
2023/10/15 06:46:35;;;;;;;5.63;0.75;;;6.50;99.90;;;;;;5056201;28;20045;-81
2023/10/15 06:49:01;;;;;;;5.95;0.98;;;6.60;99.90;;;;;;5066585;28;20038;-82
2023/10/15 06:51:28;;;;;;;5.45;1.13;;;6.60;99.90;;;;;;5064499;28;20077;-81
2023/10/15 06:53:54;;;;;;;5.72;0.98;;;6.80;99.90;;;;;;5065213;28;20143;-82
2023/10/15 06:56:21;;;;;;;5.97;1.00;;;6.70;99.90;;;;;;5031828;28;20045;-81
2023/10/15 06:58:48;;;;;;;4.57;0.90;;;6.80;99.90;;;;;;5035991;28;20081;-82
2023/10/15 07:01:15;;;;;;;3.90;0.90;;;6.80;99.90;;;;;;5057606;28;20143;-82
2023/10/15 07:03:41;;;;;;;4.22;1.40;;;6.70;99.90;;;;;;5049841;28;20049;-82
2023/10/15 07:06:08;;;;;;;5.55;0.95;;;6.80;99.90;;;;;;5070350;28;20059;-82
2023/10/15 07:08:35;;;;;;;2.13;0.88;;;6.70;99.90;;;;;;5067508;28;20041;-82
2023/10/15 07:11:04;;;;;;;3.45;0.93;;;6.80;99.90;;;;;;5062972;28;20038;-82
2023/10/15 07:13:32;;;;;;;3.60;0.80;;;6.60;99.90;;;;;;5050457;28;20046;-81
2023/10/15 07:16:00;;;;;;;2.42;0.60;;;6.70;99.90;;;;;;5063902;28;20116;-81
2023/10/15 07:18:27;;;;;;;2.10;0.50;;;6.50;99.90;;;;;;5047610;28;20037;-81
2023/10/15 07:20:54;;;;;;;2.60;0.70;;;6.50;99.90;;;;;;5031852;28;20426;-81
2023/10/15 07:23:21;;;;;;;3.50;1.10;;;6.40;99.90;;;;;;5042681;28;20041;-81
2023/10/15 07:25:47;;;;;;;2.53;0.57;;;6.40;99.90;;;;;;5051022;28;20038;-81
2023/10/15 07:28:14;;;;;;;5.93;0.75;;;6.50;99.90;;;;;;5037843;28;20120;-82
2023/10/15 07:30:41;;;;;;;4.30;0.70;;;6.40;99.90;;;;;;5063786;28;20065;-81
2023/10/15 07:33:08;;;;;;;4.90;1.20;;;6.40;99.90;;;;;;5059247;28;20064;-82
2023/10/15 07:35:35;;;;;;;5.93;1.80;;;7.10;99.90;;;;;;5041573;28;20164;-81
2023/10/15 07:38:02;;;;;;;3.95;1.75;;;6.50;99.90;;;;;;5061549;28;20041;-81
2023/10/15 07:40:32;;;;;;;5.32;1.80;;;6.50;99.90;;;;;;5049831;28;20041;-82
2023/10/15 07:43:00;;;;;;;4.38;1.38;;;6.70;99.90;;;;;;5051919;28;20025;-81
2023/10/15 07:45:28;;;;;;;3.42;0.90;;;6.70;99.90;;;;;;5049276;28;20076;-82
2023/10/15 07:47:56;;;;;;;7.13;1.00;;;6.80;99.90;;;;;;5063581;28;20041;-82
2023/10/15 07:50:25;;;;;;;4.82;1.15;;;7.20;99.90;;;;;;5037153;28;20123;-82
2023/10/15 07:52:53;;;;;;;3.70;1.20;;;7.00;99.90;;;;;;5038039;28;20094;-81
2023/10/15 07:55:23;;;;;;;4.85;1.73;;;7.10;99.90;;;;;;5035224;28;20044;-81
2023/10/15 07:57:53;;;;;;;4.97;1.60;;;7.20;99.90;;;;;;5050156;28;20053;-82
2023/10/15 08:00:25;;;;;;;8.27;1.90;;;7.20;99.90;;;;;;5050412;28;20060;-81
2023/10/15 08:02:52;;;;;;;3.25;1.10;;;7.20;99.90;;;;;;5051055;28;20040;-83
2023/10/15 08:05:22;;;;;;;2.85;1.00;;;7.20;99.90;;;;;;5066264;28;20783;-82
2023/10/15 08:07:50;;;;;;;4.75;0.80;;;7.30;99.90;;;;;;5054139;28;20614;-82
2023/10/15 08:10:20;;;;;;;3.55;0.60;;;7.30;99.90;;;;;;5045939;28;20050;-82
2023/10/15 08:12:51;;;;;;;5.68;1.02;;;7.30;99.90;;;;;;5046591;28;20046;-82
2023/10/15 08:15:19;;;;;;;2.50;0.88;;;7.30;99.90;;;;;;5047784;28;20052;-83
2023/10/15 08:17:46;;;;;;;1.45;0.80;;;7.20;99.90;;;;;;5056490;28;20034;-83
2023/10/15 08:20:13;;;;;;;2.63;0.73;;;7.20;99.90;;;;;;5070867;28;20036;-80
2023/10/15 08:22:40;;;;;;;7.38;1.10;;;7.30;99.90;;;;;;5052528;28;20564;-82
2023/10/15 08:25:14;;;;;;;5.13;2.60;;;7.20;99.90;;;;;;5060181;28;20090;-82
2023/10/15 08:27:44;;;;;;;4.03;1.45;;;7.30;99.90;;;;;;5032672;28;20406;-83
2023/10/15 08:30:12;;;;;;;3.70;0.98;;;7.30;99.90;;;;;;5040905;28;20037;-82
2023/10/15 08:32:46;;;;;;;3.05;1.25;;;7.50;99.90;;;;;;5072750;28;20044;-83
2023/10/15 08:35:14;;;;;;;5.35;0.90;;;7.70;99.90;;;;;;5069279;28;20039;-82
2023/10/15 08:37:44;;;;;;;3.45;0.50;;;7.90;99.90;;;;;;5042257;28;20044;-81
2023/10/15 08:40:15;;;;;;;0.82;0.60;;;7.90;99.90;;;;;;5062310;28;20153;-83
2023/10/15 08:43:01;;;;;;;2.90;1.02;;;7.90;99.90;;;;;;5043762;28;20414;-82
2023/10/15 08:45:29;;;;;;;6.18;0.95;;;7.80;99.90;;;;;;5042777;28;20038;-82
2023/10/15 08:47:56;;;;;;;2.72;0.77;;;7.90;99.90;;;;;;5050208;28;20526;-82
2023/10/15 08:50:23;;;;;;;2.40;0.60;;;7.80;99.90;;;;;;5057844;28;20080;-83
2023/10/15 08:52:53;;;;;;;4.07;0.93;;;7.80;99.90;;;;;;5049201;28;20095;-82
2023/10/15 08:55:24;;;;;;;3.60;0.77;;;7.80;99.90;;;;;;5062110;28;20052;-82
2023/10/15 08:57:54;;;;;;;6.45;0.85;;;8.50;99.90;;;;;;5049388;28;20125;-82
2023/10/15 09:00:25;;;;;;;4.95;0.73;;;8.30;99.90;;;;;;5046092;28;20054;-83
2023/10/15 09:02:56;;;;;;;5.68;1.92;;;7.90;99.90;;;;;;5055478;28;20487;-83
2023/10/15 09:05:24;;;;;;;2.65;0.88;;;7.90;99.90;;;;;;5048996;28;20042;-83
2023/10/15 09:07:54;;;;;;;4.68;1.25;;;7.80;99.90;;;;;;5059422;28;20402;-84
2023/10/15 09:10:21;;;;;;;4.32;2.28;;;7.70;99.90;;;;;;5065297;28;20535;-83
2023/10/15 09:12:49;;;;;;;4.00;1.80;;;7.60;99.90;;;;;;5065667;28;20129;-83
2023/10/15 09:15:16;;;;;;;4.47;1.45;;;7.60;99.90;;;;;;5060366;28;20133;-82
2023/10/15 09:18:07;;;;;;;4.60;1.67;;;7.50;99.90;;;;;;5045522;28;20403;-83
2023/10/15 09:20:42;;;;;;;3.80;1.00;;;7.50;99.90;;;;;;5028851;28;20042;-83
2023/10/15 09:23:09;;;;;;;3.60;0.85;;;7.50;99.90;;;;;;5064228;28;20116;-83
2023/10/15 09:25:36;;;;;;;2.63;1.13;;;7.40;99.90;;;;;;5047350;28;20116;-82
2023/10/15 09:28:05;;;;;;;3.58;1.23;;;7.40;99.90;;;;;;5054909;28;20093;-83
2023/10/15 09:30:32;;;;;;;4.13;0.98;;;7.40;99.90;;;;;;5055876;28;20071;-83
2023/10/15 09:32:59;;;;;;;5.00;0.93;;;7.50;99.90;;;;;;5052168;28;20096;-83
2023/10/15 09:35:26;;;;;;;6.75;1.13;;;7.40;99.90;;;;;;5039855;28;20073;-83
2023/10/15 09:37:55;;;;;;;3.90;1.10;;;7.30;99.90;;;;;;5047637;28;20036;-83
2023/10/15 09:40:30;;;;;;;4.28;1.20;;;7.40;99.90;;;;;;5046203;28;20140;-82
2023/10/15 09:42:59;;;;;;;9.20;1.88;;;7.40;99.90;;;;;;5068640;28;20412;-82
2023/10/15 09:45:26;;;;;;;6.30;2.17;;;7.30;99.90;;;;;;5068874;28;20399;-83
2023/10/15 09:47:57;;;;;;;4.57;2.53;;;7.60;99.90;;;;;;5053257;28;20052;-83
2023/10/15 09:50:27;;;;;;;4.88;1.17;;;7.50;99.90;;;;;;5050101;28;20111;-83
2023/10/15 09:53:01;;;;;;;8.52;1.15;;;7.70;99.90;;;;;;5041833;28;20136;-83
2023/10/15 09:55:31;;;;;;;6.15;1.15;;;7.80;99.90;;;;;;5043193;28;20041;-83
2023/10/15 09:58:10;;;;;;;3.50;0.88;;;8.00;99.90;;;;;;5036668;28;20034;-82
2023/10/15 10:01:25;;;;;;;2.35;0.60;;;8.20;99.90;;;;;;5053415;28;20052;-83
2023/10/15 10:04:14;;;;;;;0.90;0.50;;;8.30;99.90;;;;;;5048903;28;20088;-83
2023/10/15 10:06:58;;;;;;;1.85;0.55;;;8.50;99.90;;;;;;5045013;28;20041;-83
2023/10/15 10:09:40;;;;;;;3.90;0.98;;;8.80;99.90;;;;;;5058429;28;20134;-83
2023/10/15 10:12:23;;;;;;;4.40;0.68;;;8.90;99.90;;;;;;5066354;28;20175;-82
2023/10/15 10:15:15;;;;;;;5.68;1.35;;;9.00;99.90;;;;;;5063521;28;20047;-82
2023/10/15 10:17:43;;;;;;;3.03;0.95;;;9.10;99.90;;;;;;5054138;28;20050;-83
2023/10/15 10:20:13;;;;;;;5.45;1.50;;;9.10;99.90;;;;;;5047588;28;20044;-83
2023/10/15 10:22:41;;;;;;;4.45;1.00;;;9.40;99.90;;;;;;5052696;28;20046;-83
2023/10/15 10:25:11;;;;;;;3.55;0.80;;;9.40;99.90;;;;;;5066108;28;20032;-83
2023/10/15 10:27:41;;;;;;;3.50;0.90;;;9.90;99.90;;;;;;5056359;28;20054;-83
2023/10/15 10:30:26;;;;;;;5.93;1.20;;;9.60;99.90;;;;;;5055456;28;20044;-82
2023/10/15 10:32:57;;;;;;;4.43;1.40;;;9.50;99.90;;;;;;5057858;28;20045;-82
2023/10/15 10:35:27;;;;;;;2.55;0.70;;;9.60;99.90;;;;;;5061130;28;20081;-83
2023/10/15 10:38:10;;;;;;;4.82;0.85;;;9.70;99.90;;;;;;5043665;28;20045;-82
2023/10/15 10:41:04;;;;;;;5.60;0.95;;;9.80;99.90;;;;;;5047945;28;20387;-83
2023/10/15 10:43:32;;;;;;;6.28;1.33;;;10.00;99.90;;;;;;5048760;28;20044;-83
2023/10/15 10:46:02;;;;;;;2.70;0.88;;;10.10;99.90;;;;;;5068510;28;20423;-83
2023/10/15 10:48:33;;;;;;;9.10;1.00;;;10.30;99.90;;;;;;5050977;28;20029;-83
2023/10/15 10:51:19;;;;;;;3.05;0.82;;;10.30;99.90;;;;;;5033137;28;20125;-83
2023/10/15 10:53:58;;;;;;;4.18;0.80;;;10.30;99.90;;;;;;5061120;28;20037;-83
2023/10/15 10:56:44;;;;;;;4.00;0.80;;;10.30;99.90;;;;;;5046490;28;20042;-83
2023/10/15 10:59:13;;;;;;;5.43;1.05;;;10.30;99.90;;;;;;5042255;28;20053;-83
2023/10/15 11:01:41;;;;;;;6.85;1.00;;;10.20;99.90;;;;;;5075677;28;20562;-83
2023/10/15 11:04:09;;;;;;;2.15;0.60;;;10.10;99.90;;;;;;5053969;28;20116;-83
2023/10/15 11:06:37;;;;;;;3.70;0.60;;;9.80;99.90;;;;;;5043691;28;20124;-82
2023/10/15 11:09:18;;;;;;;5.60;1.60;;;9.60;99.90;;;;;;5048275;28;20119;-83
2023/10/15 11:11:58;;;;;;;3.47;0.95;;;9.50;99.90;;;;;;5057368;28;20052;-83
2023/10/15 11:14:28;;;;;;;1.23;0.60;;;9.50;99.90;;;;;;5047409;28;20447;-83
2023/10/15 11:16:58;;;;;;;3.80;0.80;;;9.60;99.90;;;;;;5044470;28;20099;-83
2023/10/15 11:19:28;;;;;;;3.08;0.82;;;9.70;99.90;;;;;;5053198;28;20033;-83
2023/10/15 11:21:56;;;;;;;3.05;0.70;;;9.80;99.90;;;;;;5051500;28;20521;-82
2023/10/15 11:24:24;;;;;;;5.43;0.85;;;9.60;99.90;;;;;;5058899;28;20492;-81
2023/10/15 11:26:54;;;;;;;3.60;0.70;;;9.60;99.90;;;;;;5047930;28;20056;-81
2023/10/15 11:29:23;;;;;;;2.30;0.52;;;9.40;99.90;;;;;;5030258;28;20492;-80
2023/10/15 11:31:55;;;;;;;4.95;0.90;;;9.30;99.90;;;;;;5032743;28;20073;-80
2023/10/15 11:34:24;;;;;;;6.72;1.85;;;9.30;99.90;;;;;;5046711;28;20125;-80
2023/10/15 11:36:55;;;;;;;5.60;0.80;;;9.10;99.90;;;;;;5043870;28;20546;-80
2023/10/15 11:39:42;;;;;;;4.28;0.90;;;9.00;99.90;;;;;;5047646;28;20125;-81
2023/10/15 11:42:10;;;;;;;3.00;0.70;;;9.00;99.90;;;;;;5049795;28;20495;-81
2023/10/15 11:44:37;;;;;;;2.95;0.88;;;9.00;99.90;;;;;;5046275;28;20034;-80
2023/10/15 11:47:19;;;;;;;7.63;1.05;;;9.00;99.90;;;;;;5058972;28;20080;-80
2023/10/15 11:49:50;;;;;;;4.10;0.88;;;9.10;99.90;;;;;;5046270;28;20130;-80
2023/10/15 11:52:22;;;;;;;5.53;0.80;;;9.10;99.90;;;;;;5032947;28;20060;-80
2023/10/15 11:54:51;;;;;;;3.63;1.20;;;9.10;99.90;;;;;;5067107;28;20048;-80
2023/10/15 11:57:25;;;;;;;6.85;1.00;;;9.20;99.90;;;;;;5059344;28;20046;-80
2023/10/15 11:59:53;;;;;;;5.30;1.08;;;9.70;99.90;;;;;;5030520;28;20060;-80
2023/10/15 12:02:19;;;;;;;4.28;0.93;;;9.40;99.90;;;;;;5041939;28;20042;-81
2023/10/15 12:04:51;;;;;;;4.55;2.28;;;9.20;99.90;;;;;;5065752;28;20549;-81
2023/10/15 12:07:21;;;;;;;3.33;0.70;;;8.70;99.90;;;;;;5042738;28;20041;-80
2023/10/15 12:09:48;;;;;;;4.40;0.70;;;8.60;99.90;;;;;;5062761;28;20403;-81
2023/10/15 12:12:15;;;;;;;4.03;1.13;;;8.40;99.90;;;;;;5048614;28;20041;-81
2023/10/15 12:14:42;;;;;;;4.00;1.05;;;8.30;99.90;;;;;;5051866;28;20392;-81
2023/10/15 12:17:08;;;;;;;2.17;0.80;;;8.20;99.90;;;;;;5061236;28;20048;-81
2023/10/15 12:19:35;;;;;;;2.50;1.10;;;8.20;99.90;;;;;;5060879;28;20041;-81
2023/10/15 12:22:03;;;;;;;4.15;1.40;;;8.00;99.90;;;;;;5049459;28;20499;-80
2023/10/15 12:24:29;;;;;;;6.30;1.10;;;8.00;99.90;;;;;;5035050;28;20053;-80
2023/10/15 12:26:56;;;;;;;2.83;0.70;;;8.00;99.90;;;;;;5044861;28;20487;-81
2023/10/15 12:29:28;;;;;;;4.97;0.98;;;8.00;99.90;;;;;;5042891;28;20080;-81
2023/10/15 12:32:01;;;;;;;3.60;0.80;;;8.00;99.90;;;;;;5045548;28;20053;-81
2023/10/15 12:34:28;;;;;;;4.80;0.80;;;8.40;99.90;;;;;;5051626;28;20075;-81
2023/10/15 12:36:56;;;;;;;6.10;0.98;;;8.60;99.90;;;;;;5048988;28;20136;-81
2023/10/15 12:39:26;;;;;;;3.50;0.93;;;8.50;99.90;;;;;;5041883;28;20037;-81
2023/10/15 12:41:54;;;;;;;3.03;0.80;;;9.20;99.90;;;;;;5047540;28;20116;-80
2023/10/15 12:44:22;;;;;;;5.90;0.95;;;8.90;99.90;;;;;;5032393;28;20423;-81
2023/10/15 12:46:50;;;;;;;6.00;1.10;;;9.30;99.90;;;;;;5048718;28;20064;-80
2023/10/15 12:49:17;;;;;;;5.78;0.93;;;9.10;99.90;;;;;;5031087;28;20048;-81
2023/10/15 12:51:44;;;;;;;4.15;1.20;;;9.20;99.90;;;;;;5047640;28;20703;-81
2023/10/15 12:54:11;;;;;;;3.47;1.00;;;9.20;99.90;;;;;;5026490;28;20060;-80
2023/10/15 12:56:39;;;;;;;3.75;0.73;;;9.30;99.90;;;;;;5044136;28;20124;-81
2023/10/15 12:59:06;;;;;;;7.10;1.10;;;9.20;99.90;;;;;;5038331;28;20133;-81
2023/10/15 13:01:33;;;;;;;3.45;0.88;;;9.40;99.90;;;;;;5057395;28;20045;-81
2023/10/15 13:04:00;;;;;;;2.95;1.10;;;9.10;99.90;;;;;;5065320;28;20496;-81
2023/10/15 13:06:27;;;;;;;3.53;0.88;;;9.10;99.90;;;;;;5045449;28;20132;-81
2023/10/15 13:08:55;;;;;;;4.78;0.70;;;9.10;99.90;;;;;;5058558;28;20384;-81
2023/10/15 13:11:22;;;;;;;5.55;0.88;;;9.20;99.90;;;;;;5041277;28;20049;-80
2023/10/15 13:13:49;;;;;;;4.72;1.23;;;9.20;99.90;;;;;;5059446;28;20037;-80
2023/10/15 13:16:18;;;;;;;7.10;0.90;;;9.40;99.90;;;;;;5048255;28;20048;-82
2023/10/15 13:18:44;;;;;;;4.15;0.70;;;9.20;99.90;;;;;;5063410;28;20116;-80
2023/10/15 13:21:11;;;;;;;5.88;1.27;;;9.10;99.90;;;;;;5044770;28;20456;-81
2023/10/15 13:23:37;;;;;;;3.80;0.80;;;9.10;99.90;;;;;;5045333;28;20044;-81
2023/10/15 13:26:08;;;;;;;5.00;0.80;;;8.90;99.90;;;;;;5045396;28;20053;-81
2023/10/15 13:28:34;;;;;;;3.30;0.93;;;8.70;99.90;;;;;;5047359;28;20029;-81
2023/10/15 13:31:02;;;;;;;3.75;0.90;;;8.60;99.90;;;;;;5051883;28;20095;-81
2023/10/15 13:33:28;;;;;;;3.30;0.70;;;8.60;99.90;;;;;;5057083;28;20125;-80